Las Vegas, Nevada
Traffic Map
Current Weather Conditions
Las Vegas, Nevada
Overcast
Overcast
72°
Feels Like: 72°
Wind Chill: 72° Ceiling: 17000
Heat Index: 72° Visibility: 10mi
Dew Point: 34° Wind: 14mph
Humidity: 25% Direction: 180° (S)
Pressure: 29.84in Gusts: 0mph
Raw Report DataKLAS 190656Z 18012KT 10SM BKN170 OVC250 22/01 A2984 RMK AO2 SLP085 T02220011
Traffic Incident Summary
Active as of:
Severity:
Category:
InformationThere was an issue retrieving the traffic information for this location. Please try a different location or try again shortly.
Advertisements
At Last! Intellicast now available for iPhone and Android